Time;durP1;ratioP1;P1;durP2;ratioP2;P2;SDS_P1;SDS_P2;PMS_P1;PMS_P2;Temp;Humidity;BMP_temperature;BMP_pressure;BME280_temperature;BME280_humidity;BME280_pressure;Samples;Min_cycle;Max_cycle;Signal;HPM_P1;HPM_P2
2022/12/18 00:01:05;;;;;;;50.58;18.33;;;;;;;;;;5070452;28;20057;-80
2022/12/18 00:03:35;;;;;;;46.38;17.23;;;;;;;;;;5069359;28;20064;-79
2022/12/18 00:06:02;;;;;;;52.15;17.88;;;;;;;;;;5063886;28;20061;-80
2022/12/18 00:08:29;;;;;;;63.53;19.75;;;;;;;;;;5069797;28;20080;-79
2022/12/18 00:10:55;;;;;;;55.28;18.83;;;;;;;;;;5068564;28;20071;-79
2022/12/18 00:13:27;;;;;;;54.05;19.92;;;;;;;;;;5051329;28;20049;-80
2022/12/18 00:15:53;;;;;;;62.05;20.00;;;;;;;;;;5070939;28;20129;-80
2022/12/18 00:18:22;;;;;;;58.55;19.50;;;;;;;;;;5070070;28;20053;-79
2022/12/18 00:20:48;;;;;;;61.42;21.10;;;;;;;;;;5069084;28;20088;-79
2022/12/18 00:23:14;;;;;;;55.92;19.42;;;;;;;;;;5069372;28;20138;-79
2022/12/18 00:25:41;;;;;;;52.08;19.73;;;;;;;;;;5070125;28;20512;-79
2022/12/18 00:28:07;;;;;;;57.58;18.73;;;;;;;;;;5068764;28;20543;-80
2022/12/18 00:30:34;;;;;;;51.55;19.38;;;;;;;;;;5067197;28;20580;-80
2022/12/18 00:33:00;;;;;;;59.50;20.30;;;;;;;;;;5069286;28;20045;-79
2022/12/18 00:35:27;;;;;;;63.78;20.48;;;;;;;;;;5070870;28;20834;-79
2022/12/18 00:37:53;;;;;;;62.10;19.75;;;;;;;;;;5052572;28;20057;-78
2022/12/18 00:40:20;;;;;;;61.47;19.30;;;;;;;;;;5069023;28;20848;-79
2022/12/18 00:42:55;;;;;;;53.30;18.58;;;;;;;;;;5068789;28;20060;-80
2022/12/18 00:45:22;;;;;;;56.28;20.05;;;;;;;;;;5069624;28;20045;-79
2022/12/18 00:47:49;;;;;;;54.05;18.38;;;;;;;;;;5069138;28;20140;-80
2022/12/18 00:50:15;;;;;;;54.03;18.88;;;;;;;;;;5068223;28;20135;-79
2022/12/18 00:52:42;;;;;;;58.22;18.45;;;;;;;;;;5068480;28;20061;-79
2022/12/18 00:55:09;;;;;;;54.28;18.35;;;;;;;;;;5067072;28;20607;-78
2022/12/18 00:57:35;;;;;;;52.42;19.10;;;;;;;;;;5068925;28;20049;-80
2022/12/18 01:00:03;;;;;;;53.35;18.35;;;;;;;;;;5068326;28;20063;-79
2022/12/18 01:02:30;;;;;;;55.30;18.65;;;;;;;;;;5068527;28;20060;-79
2022/12/18 01:04:56;;;;;;;58.08;18.65;;;;;;;;;;5068014;28;20057;-78
2022/12/18 01:07:23;;;;;;;57.22;19.20;;;;;;;;;;5067420;28;20088;-79
2022/12/18 01:09:49;;;;;;;53.55;18.33;;;;;;;;;;5069093;28;21228;-78
2022/12/18 01:12:16;;;;;;;55.35;18.75;;;;;;;;;;5068155;28;20391;-80
2022/12/18 01:14:42;;;;;;;57.53;18.80;;;;;;;;;;5066267;28;20052;-79
2022/12/18 01:17:08;;;;;;;52.15;17.10;;;;;;;;;;5067005;28;20060;-79
2022/12/18 01:19:35;;;;;;;57.50;17.83;;;;;;;;;;5068227;28;20053;-79
2022/12/18 01:22:01;;;;;;;54.70;19.13;;;;;;;;;;5065624;28;20115;-78
2022/12/18 01:24:28;;;;;;;52.22;18.23;;;;;;;;;;5067512;28;20131;-79
2022/12/18 01:26:56;;;;;;;50.08;18.52;;;;;;;;;;5066359;28;20869;-80
2022/12/18 01:29:23;;;;;;;54.65;17.90;;;;;;;;;;5050725;28;20057;-79
2022/12/18 01:31:50;;;;;;;56.58;20.30;;;;;;;;;;5065424;28;20143;-79
2022/12/18 01:34:16;;;;;;;54.70;18.73;;;;;;;;;;5068769;28;20064;-79
2022/12/18 01:36:43;;;;;;;56.42;18.65;;;;;;;;;;5068112;28;20554;-78
2022/12/18 01:39:11;;;;;;;56.70;18.77;;;;;;;;;;5068558;28;20049;-79
2022/12/18 01:44:40;;;;;;;57.72;17.90;;;;;;;;;;5065657;28;20049;-79
2022/12/18 01:47:07;;;;;;;52.92;18.17;;;;;;;;;;5066590;28;20909;-78
2022/12/18 01:49:33;;;;;;;54.92;18.70;;;;;;;;;;5068156;28;20057;-79
2022/12/18 01:52:00;;;;;;;53.63;18.70;;;;;;;;;;5067443;28;20123;-78
2022/12/18 01:54:26;;;;;;;53.83;18.55;;;;;;;;;;5065272;28;20057;-80
2022/12/18 01:56:52;;;;;;;54.85;18.45;;;;;;;;;;5066205;28;20044;-78
2022/12/18 01:59:19;;;;;;;50.90;18.42;;;;;;;;;;5067367;28;20049;-78
2022/12/18 02:01:45;;;;;;;54.22;17.98;;;;;;;;;;5066601;28;20212;-78
2022/12/18 02:04:18;;;;;;;48.75;18.02;;;;;;;;;;5064408;28;20052;-78
2022/12/18 02:06:45;;;;;;;47.80;16.90;;;;;;;;;;5065422;28;20118;-80
2022/12/18 02:09:14;;;;;;;48.53;17.88;;;;;;;;;;5066774;28;20053;-79
2022/12/18 02:11:56;;;;;;;48.10;17.50;;;;;;;;;;5066481;28;20169;-79
2022/12/18 02:14:31;;;;;;;48.03;17.70;;;;;;;;;;5063984;28;20059;-78
2022/12/18 02:17:04;;;;;;;46.25;16.55;;;;;;;;;;5063746;28;20340;-78
2022/12/18 02:19:49;;;;;;;54.20;17.42;;;;;;;;;;5064451;28;20088;-78
2022/12/18 02:22:34;;;;;;;46.03;16.50;;;;;;;;;;5066290;28;20057;-80
2022/12/18 02:25:21;;;;;;;46.75;16.63;;;;;;;;;;5053037;28;20059;-78
2022/12/18 02:27:49;;;;;;;44.58;16.02;;;;;;;;;;5031987;28;20890;-77
2022/12/18 02:30:15;;;;;;;51.92;17.02;;;;;;;;;;5045740;28;20059;-78
2022/12/18 02:32:44;;;;;;;48.70;18.73;;;;;;;;;;5057759;28;20061;-78
2022/12/18 02:35:13;;;;;;;53.53;17.55;;;;;;;;;;5064780;28;20088;-78
2022/12/18 02:37:41;;;;;;;41.22;15.55;;;;;;;;;;5063819;28;20049;-78
2022/12/18 02:40:09;;;;;;;47.35;16.77;;;;;;;;;;5048332;28;20107;-78
2022/12/18 02:42:35;;;;;;;49.40;17.55;;;;;;;;;;5065429;28;21054;-77
2022/12/18 02:45:02;;;;;;;45.40;17.45;;;;;;;;;;5065474;28;20060;-78
2022/12/18 02:47:30;;;;;;;47.67;16.90;;;;;;;;;;5066765;28;20080;-78
2022/12/18 02:49:57;;;;;;;54.20;17.80;;;;;;;;;;5048220;28;20063;-78
2022/12/18 02:52:45;;;;;;;48.35;16.90;;;;;;;;;;5064712;28;20052;-79
2022/12/18 02:55:30;;;;;;;51.33;18.25;;;;;;;;;;5048586;28;20061;-78
2022/12/18 02:58:15;;;;;;;55.35;18.33;;;;;;;;;;5066206;28;20053;-78
2022/12/18 03:00:46;;;;;;;51.50;16.58;;;;;;;;;;5064744;28;20111;-79
2022/12/18 03:03:26;;;;;;;44.83;15.90;;;;;;;;;;5066787;28;20068;-78
2022/12/18 03:05:53;;;;;;;;;;;;;;;;;;5066932;28;20089;-77
2022/12/18 03:08:30;;;;;;;41.17;15.82;;;;;;;;;;5064482;28;47572;-78
2022/12/18 03:11:04;;;;;;;46.95;16.42;;;;;;;;;;5046940;28;20053;-77
2022/12/18 03:13:46;;;;;;;50.05;16.67;;;;;;;;;;5048191;28;20057;-78
2022/12/18 03:16:17;;;;;;;43.13;14.98;;;;;;;;;;5066270;28;20056;-78
2022/12/18 03:18:43;;;;;;;;;;;;;;;;;;5066178;28;20053;-77
2022/12/18 03:21:10;;;;;;;48.17;16.65;;;;;;;;;;5061354;28;47575;-78
2022/12/18 03:23:40;;;;;;;48.10;16.33;;;;;;;;;;5066428;28;20049;-78
2022/12/18 03:26:09;;;;;;;46.30;15.77;;;;;;;;;;5065811;28;20140;-77
2022/12/18 03:28:38;;;;;;;47.00;16.63;;;;;;;;;;5064611;28;20045;-77
2022/12/18 03:31:06;;;;;;;44.28;15.10;;;;;;;;;;5049619;28;20061;-77
2022/12/18 03:33:36;;;;;;;50.85;17.48;;;;;;;;;;5051284;28;20053;-77
2022/12/18 03:36:03;;;;;;;49.80;16.57;;;;;;;;;;5069115;28;20088;-77
2022/12/18 03:38:30;;;;;;;53.70;17.40;;;;;;;;;;5069573;28;20056;-77
2022/12/18 03:41:00;;;;;;;42.30;16.40;;;;;;;;;;5065631;28;20143;-77
2022/12/18 03:43:27;;;;;;;44.10;16.17;;;;;;;;;;5051315;28;20060;-77
2022/12/18 03:45:59;;;;;;;48.72;16.27;;;;;;;;;;5050464;28;20052;-78
2022/12/18 03:48:25;;;;;;;42.38;14.70;;;;;;;;;;5068994;28;20057;-77
2022/12/18 03:50:54;;;;;;;46.28;15.15;;;;;;;;;;5047613;28;20053;-77
2022/12/18 03:53:40;;;;;;;37.00;14.18;;;;;;;;;;5066836;28;20086;-77
2022/12/18 03:56:08;;;;;;;46.50;15.70;;;;;;;;;;5068296;28;20052;-77
2022/12/18 03:58:37;;;;;;;48.22;14.93;;;;;;;;;;5066905;28;20516;-77
2022/12/18 04:01:09;;;;;;;40.33;15.95;;;;;;;;;;5047893;28;20051;-77
2022/12/18 04:03:35;;;;;;;47.67;16.23;;;;;;;;;;5068057;28;20060;-77
2022/12/18 04:06:02;;;;;;;39.60;15.13;;;;;;;;;;5050105;28;20132;-77
2022/12/18 04:08:30;;;;;;;43.75;14.90;;;;;;;;;;5068049;28;20049;-77
2022/12/18 04:10:57;;;;;;;36.17;14.57;;;;;;;;;;5068221;28;20063;-77
2022/12/18 04:13:24;;;;;;;43.00;16.20;;;;;;;;;;5068465;28;20481;-77
2022/12/18 04:15:51;;;;;;;42.28;15.35;;;;;;;;;;5066460;28;20067;-77
2022/12/18 04:18:18;;;;;;;41.17;15.15;;;;;;;;;;5069173;28;20087;-77
2022/12/18 04:20:45;;;;;;;41.33;15.30;;;;;;;;;;5067854;28;20523;-77
2022/12/18 04:23:11;;;;;;;36.45;14.32;;;;;;;;;;5067263;28;20053;-77
2022/12/18 04:25:38;;;;;;;39.05;14.25;;;;;;;;;;5068462;28;20126;-77
2022/12/18 04:28:04;;;;;;;43.90;14.98;;;;;;;;;;5057670;28;20054;-77
2022/12/18 04:30:31;;;;;;;45.25;14.57;;;;;;;;;;5067649;28;20147;-77
2022/12/18 04:32:57;;;;;;;36.80;14.80;;;;;;;;;;5067861;28;20060;-77
2022/12/18 04:35:24;;;;;;;38.45;14.95;;;;;;;;;;5068525;28;20041;-77
2022/12/18 04:37:50;;;;;;;39.33;14.27;;;;;;;;;;5066494;28;20167;-77
2022/12/18 04:40:16;;;;;;;38.45;13.65;;;;;;;;;;5067250;28;20049;-77
2022/12/18 04:42:43;;;;;;;38.33;13.13;;;;;;;;;;5068338;28;20128;-77
2022/12/18 04:45:09;;;;;;;34.90;14.07;;;;;;;;;;5067742;28;20061;-77
2022/12/18 04:47:36;;;;;;;29.95;12.15;;;;;;;;;;5067067;28;20049;-77
2022/12/18 04:50:03;;;;;;;35.33;13.77;;;;;;;;;;5066585;28;20084;-77
2022/12/18 04:52:30;;;;;;;30.80;12.65;;;;;;;;;;5067640;28;20539;-77
2022/12/18 04:54:57;;;;;;;35.80;12.95;;;;;;;;;;5067961;28;20056;-77
2022/12/18 04:57:23;;;;;;;32.42;13.05;;;;;;;;;;5050214;28;20114;-77
2022/12/18 04:59:50;;;;;;;34.83;13.38;;;;;;;;;;5064231;28;20136;-77
2022/12/18 05:02:16;;;;;;;33.00;12.80;;;;;;;;;;5067590;28;20060;-77
2022/12/18 05:04:43;;;;;;;34.25;13.02;;;;;;;;;;5067749;28;20056;-76
2022/12/18 05:07:09;;;;;;;27.58;12.77;;;;;;;;;;5067373;28;20085;-76
2022/12/18 05:09:35;;;;;;;34.78;13.82;;;;;;;;;;5064912;28;20101;-77
2022/12/18 05:12:02;;;;;;;36.60;13.60;;;;;;;;;;5066687;28;20594;-76
2022/12/18 05:14:29;;;;;;;29.92;12.65;;;;;;;;;;5067911;28;20136;-76
2022/12/18 05:16:55;;;;;;;30.15;12.15;;;;;;;;;;5068278;28;20523;-77
2022/12/18 05:19:26;;;;;;;31.85;12.73;;;;;;;;;;5066879;28;20072;-77
2022/12/18 05:21:52;;;;;;;30.05;12.15;;;;;;;;;;5066039;28;20056;-76
2022/12/18 05:24:18;;;;;;;32.60;12.48;;;;;;;;;;5067810;28;20061;-76
2022/12/18 05:26:45;;;;;;;35.83;12.60;;;;;;;;;;5066490;28;20049;-76
2022/12/18 05:29:12;;;;;;;42.58;13.25;;;;;;;;;;5066852;28;20536;-76
2022/12/18 05:31:39;;;;;;;31.52;11.63;;;;;;;;;;5048270;28;20064;-76
2022/12/18 05:34:08;;;;;;;31.02;11.77;;;;;;;;;;5065585;28;20486;-77
2022/12/18 05:36:35;;;;;;;27.85;11.52;;;;;;;;;;5067224;28;20504;-76
2022/12/18 05:39:02;;;;;;;31.33;12.07;;;;;;;;;;5066590;28;20061;-77
2022/12/18 05:41:29;;;;;;;27.95;10.77;;;;;;;;;;5049287;28;20060;-77
2022/12/18 05:43:56;;;;;;;30.13;10.93;;;;;;;;;;5065851;28;20057;-77
2022/12/18 05:46:22;;;;;;;29.55;11.63;;;;;;;;;;5048981;28;20466;-77
2022/12/18 05:48:50;;;;;;;27.73;11.13;;;;;;;;;;5052888;28;20119;-77
2022/12/18 05:51:17;;;;;;;28.65;11.15;;;;;;;;;;5048656;28;20053;-77
2022/12/18 05:53:44;;;;;;;25.08;10.25;;;;;;;;;;5048069;28;20052;-77
2022/12/18 05:56:11;;;;;;;27.65;10.73;;;;;;;;;;5045370;28;20053;-76
2022/12/18 05:58:38;;;;;;;28.40;10.70;;;;;;;;;;5067016;28;20572;-77
2022/12/18 06:01:12;;;;;;;29.33;11.00;;;;;;;;;;5064907;28;20529;-77
2022/12/18 06:03:38;;;;;;;26.35;10.52;;;;;;;;;;5067052;28;20060;-77
2022/12/18 06:06:19;;;;;;;28.50;11.50;;;;;;;;;;5066348;28;20053;-76
2022/12/18 06:08:45;;;;;;;41.10;11.90;;;;;;;;;;5066146;28;20061;-77
2022/12/18 06:11:13;;;;;;;27.45;10.45;;;;;;;;;;5064164;28;20053;-77
2022/12/18 06:13:39;;;;;;;32.10;12.18;;;;;;;;;;5047309;28;20064;-77
2022/12/18 06:16:07;;;;;;;28.85;11.40;;;;;;;;;;5066398;28;20052;-77
2022/12/18 06:18:34;;;;;;;25.73;11.57;;;;;;;;;;5066374;28;20575;-77
2022/12/18 06:21:00;;;;;;;25.23;11.40;;;;;;;;;;5055815;28;20058;-77
2022/12/18 06:23:27;;;;;;;25.60;11.70;;;;;;;;;;5055934;28;20132;-77
2022/12/18 06:25:53;;;;;;;23.75;10.60;;;;;;;;;;5063961;28;20080;-77
2022/12/18 06:28:20;;;;;;;27.98;10.95;;;;;;;;;;5066636;28;20579;-76
2022/12/18 06:30:47;;;;;;;27.27;11.55;;;;;;;;;;5065375;28;20425;-76
2022/12/18 06:33:14;;;;;;;27.70;11.70;;;;;;;;;;5065411;28;20508;-77
2022/12/18 06:35:41;;;;;;;26.52;11.90;;;;;;;;;;5048444;28;20583;-76
2022/12/18 06:38:07;;;;;;;25.80;11.25;;;;;;;;;;5066699;28;20115;-76
2022/12/18 06:40:34;;;;;;;31.38;11.63;;;;;;;;;;5065807;28;20064;-76
2022/12/18 06:43:00;;;;;;;25.13;11.65;;;;;;;;;;5065082;28;20053;-76
2022/12/18 06:45:26;;;;;;;26.45;10.52;;;;;;;;;;5066901;28;20061;-76
2022/12/18 06:47:53;;;;;;;30.00;12.00;;;;;;;;;;5066424;28;20235;-76
2022/12/18 06:50:19;;;;;;;25.98;11.20;;;;;;;;;;5065538;28;20048;-76
2022/12/18 06:52:46;;;;;;;28.88;10.98;;;;;;;;;;5065100;28;20053;-77
2022/12/18 06:55:12;;;;;;;25.35;10.20;;;;;;;;;;5066128;28;20196;-77
2022/12/18 06:57:38;;;;;;;26.20;10.85;;;;;;;;;;5065741;28;20526;-76
2022/12/18 07:00:05;;;;;;;28.85;11.48;;;;;;;;;;5064585;28;20049;-76
2022/12/18 07:02:32;;;;;;;24.55;10.23;;;;;;;;;;5065107;28;20053;-76
2022/12/18 07:04:59;;;;;;;23.73;10.20;;;;;;;;;;5064801;28;20156;-77
2022/12/18 07:07:25;;;;;;;26.45;11.45;;;;;;;;;;5066057;28;20060;-77
2022/12/18 07:09:51;;;;;;;28.60;11.70;;;;;;;;;;5068558;28;20136;-77
2022/12/18 07:12:18;;;;;;;26.88;11.18;;;;;;;;;;5069714;28;20536;-76
2022/12/18 07:14:44;;;;;;;24.98;10.70;;;;;;;;;;5067228;28;20139;-76
2022/12/18 07:17:11;;;;;;;26.75;11.35;;;;;;;;;;5063762;28;20092;-76
2022/12/18 07:19:37;;;;;;;30.42;11.13;;;;;;;;;;5063169;28;20049;-76
2022/12/18 07:22:03;;;;;;;26.70;11.77;;;;;;;;;;5066881;28;20091;-76
2022/12/18 07:24:32;;;;;;;26.98;11.18;;;;;;;;;;5064447;28;20057;-77
2022/12/18 07:26:59;;;;;;;24.15;10.45;;;;;;;;;;5067161;28;20048;-76
2022/12/18 07:29:25;;;;;;;28.15;11.45;;;;;;;;;;5063299;28;20511;-76
2022/12/18 07:31:52;;;;;;;28.52;10.32;;;;;;;;;;5069178;28;20052;-77
2022/12/18 07:34:18;;;;;;;28.15;10.55;;;;;;;;;;5066581;28;20168;-76
2022/12/18 07:36:44;;;;;;;28.27;11.40;;;;;;;;;;5063088;28;20065;-76
2022/12/18 07:39:11;;;;;;;21.88;10.38;;;;;;;;;;5064914;28;20595;-76
2022/12/18 07:41:38;;;;;;;28.77;10.85;;;;;;;;;;5065245;28;20136;-76
2022/12/18 07:44:12;;;;;;;26.77;11.07;;;;;;;;;;5068686;28;20079;-77
2022/12/18 07:46:39;;;;;;;31.60;13.57;;;;;;;;;;5066336;28;20045;-78
2022/12/18 07:49:05;;;;;;;36.25;12.35;;;;;;;;;;5067772;28;20127;-78
2022/12/18 07:51:32;;;;;;;29.83;11.98;;;;;;;;;;5068838;28;20527;-78
2022/12/18 07:53:58;;;;;;;24.15;11.85;;;;;;;;;;5069068;28;20057;-78
2022/12/18 07:56:24;;;;;;;30.77;11.63;;;;;;;;;;5068822;28;20057;-78
2022/12/18 07:58:54;;;;;;;23.98;11.20;;;;;;;;;;5062702;28;20087;-78
2022/12/18 08:01:20;;;;;;;28.23;11.85;;;;;;;;;;5068352;28;20063;-78
2022/12/18 08:03:47;;;;;;;24.73;11.13;;;;;;;;;;5065092;28;20112;-78
2022/12/18 08:06:15;;;;;;;28.00;10.80;;;;;;;;;;5066455;28;20499;-78
2022/12/18 08:08:42;;;;;;;23.98;9.55;;;;;;;;;;5066464;28;20057;-78
2022/12/18 08:11:08;;;;;;;27.67;11.18;;;;;;;;;;5063955;28;20057;-78
2022/12/18 08:13:34;;;;;;;24.40;9.88;;;;;;;;;;5047881;28;20059;-78
2022/12/18 08:16:03;;;;;;;26.10;10.52;;;;;;;;;;5058556;28;20064;-77
2022/12/18 08:18:31;;;;;;;27.83;11.65;;;;;;;;;;5067139;28;20045;-78
2022/12/18 08:20:57;;;;;;;24.33;11.18;;;;;;;;;;5066292;28;20056;-79
2022/12/18 08:23:24;;;;;;;25.90;11.45;;;;;;;;;;5053951;28;20060;-78
2022/12/18 08:25:54;;;;;;;23.85;10.73;;;;;;;;;;5067331;28;20056;-78
2022/12/18 08:28:20;;;;;;;24.73;11.80;;;;;;;;;;5068185;28;20065;-78
2022/12/18 08:30:51;;;;;;;23.50;10.77;;;;;;;;;;5057400;28;20049;-78
2022/12/18 08:33:17;;;;;;;24.95;11.35;;;;;;;;;;5062690;28;20608;-78
2022/12/18 08:35:43;;;;;;;25.58;11.88;;;;;;;;;;5060139;28;20057;-79
2022/12/18 08:38:11;;;;;;;25.67;11.43;;;;;;;;;;5050061;28;20578;-78
2022/12/18 08:40:38;;;;;;;25.17;11.77;;;;;;;;;;5061260;28;20054;-79
2022/12/18 08:45:49;;;;;;;23.83;10.98;;;;;;;;;;5055604;28;20144;-78
2022/12/18 08:48:15;;;;;;;24.35;10.93;;;;;;;;;;5066909;28;20072;-78
2022/12/18 08:50:57;;;;;;;29.95;11.90;;;;;;;;;;5061076;28;20593;-78
2022/12/18 08:53:24;;;;;;;26.20;12.38;;;;;;;;;;5065658;28;20057;-78
2022/12/18 08:55:50;;;;;;;26.42;11.98;;;;;;;;;;5068248;28;20079;-78
2022/12/18 08:58:16;;;;;;;25.60;12.48;;;;;;;;;;5065894;28;20547;-78
2022/12/18 09:00:43;;;;;;;22.30;10.45;;;;;;;;;;5067626;28;20119;-78
2022/12/18 09:03:16;;;;;;;25.35;10.82;;;;;;;;;;5067111;28;20060;-78
2022/12/18 09:05:42;;;;;;;27.10;12.60;;;;;;;;;;5067538;28;20053;-78
2022/12/18 09:08:09;;;;;;;24.33;11.60;;;;;;;;;;5065732;28;20060;-78
2022/12/18 09:10:41;;;;;;;29.13;12.48;;;;;;;;;;5066932;28;20065;-79
2022/12/18 09:13:09;;;;;;;23.13;11.70;;;;;;;;;;5045987;28;20054;-78
2022/12/18 09:15:40;;;;;;;25.92;11.30;;;;;;;;;;5063197;28;20084;-79
2022/12/18 09:18:07;;;;;;;;;;;;;;;;;;5059857;28;20076;-78
2022/12/18 09:20:33;;;;;;;20.38;10.02;;;;;;;;;;5058668;28;44078;-77
2022/12/18 09:22:59;;;;;;;22.40;10.90;;;;;;;;;;5065036;28;20060;-78
2022/12/18 09:25:31;;;;;;;27.73;12.43;;;;;;;;;;5063547;28;20531;-78
2022/12/18 09:28:14;;;;;;;23.77;10.55;;;;;;;;;;5045963;28;20049;-78
2022/12/18 09:30:42;;;;;;;24.30;11.18;;;;;;;;;;5045599;28;20060;-81
2022/12/18 09:33:08;;;;;;;25.95;11.75;;;;;;;;;;5067757;28;20056;-78
2022/12/18 09:35:36;;;;;;;24.75;10.40;;;;;;;;;;5048822;28;20111;-79
2022/12/18 09:38:02;;;;;;;22.65;10.57;;;;;;;;;;5057556;28;20065;-78
2022/12/18 09:40:32;;;;;;;23.75;11.60;;;;;;;;;;5042032;28;20057;-79
2022/12/18 09:43:00;;;;;;;27.33;11.20;;;;;;;;;;5063251;28;20057;-78
2022/12/18 09:45:27;;;;;;;26.30;11.70;;;;;;;;;;5064244;28;20100;-78
2022/12/18 09:47:54;;;;;;;26.73;11.38;;;;;;;;;;5066715;28;20056;-79
2022/12/18 09:50:26;;;;;;;19.35;9.88;;;;;;;;;;5066307;28;20239;-78
2022/12/18 09:52:54;;;;;;;23.63;11.15;;;;;;;;;;5051242;28;20049;-78
2022/12/18 09:55:27;;;;;;;23.45;11.30;;;;;;;;;;5065088;28;20081;-79
2022/12/18 09:58:07;;;;;;;25.90;11.95;;;;;;;;;;5067163;28;20061;-80
2022/12/18 10:00:34;;;;;;;24.63;10.77;;;;;;;;;;5055915;28;20064;-79
2022/12/18 10:03:15;;;;;;;24.42;10.20;;;;;;;;;;5064722;28;21055;-79
2022/12/18 10:06:00;;;;;;;29.65;11.95;;;;;;;;;;5065128;28;20088;-78
2022/12/18 10:08:45;;;;;;;23.55;10.38;;;;;;;;;;5060048;28;20408;-78
2022/12/18 10:11:21;;;;;;;24.13;10.57;;;;;;;;;;5048076;28;20111;-78
2022/12/18 10:13:52;;;;;;;25.15;10.45;;;;;;;;;;5064597;28;20127;-79
2022/12/18 10:16:18;;;;;;;25.25;12.02;;;;;;;;;;5044786;28;20068;-79
2022/12/18 10:18:57;;;;;;;24.50;10.90;;;;;;;;;;5063161;28;20075;-79
2022/12/18 10:21:28;;;;;;;28.30;11.75;;;;;;;;;;5066140;28;20057;-78
2022/12/18 10:24:13;;;;;;;23.67;11.68;;;;;;;;;;5063335;28;20056;-78
2022/12/18 10:26:40;;;;;;;23.27;9.43;;;;;;;;;;5064010;28;20053;-79
2022/12/18 10:29:14;;;;;;;19.83;9.90;;;;;;;;;;5060286;28;20057;-79
2022/12/18 10:31:41;;;;;;;21.27;9.63;;;;;;;;;;5059779;28;20060;-78
2022/12/18 10:34:11;;;;;;;22.17;10.02;;;;;;;;;;5051859;28;20903;-79
2022/12/18 10:36:38;;;;;;;23.55;10.65;;;;;;;;;;5045139;28;21083;-78
2022/12/18 10:39:22;;;;;;;19.80;9.85;;;;;;;;;;5065433;28;20055;-79
2022/12/18 10:41:49;;;;;;;23.23;10.20;;;;;;;;;;5047517;28;20136;-80
2022/12/18 10:44:20;;;;;;;23.67;11.50;;;;;;;;;;5067057;28;20596;-78
2022/12/18 10:46:46;;;;;;;;;;;;;;;;;;5068336;28;20119;-79
2022/12/18 10:49:26;;;;;;;22.48;10.32;;;;;;;;;;5065388;28;44332;-80
2022/12/18 10:52:12;;;;;;;26.05;11.25;;;;;;;;;;5061360;28;20148;-79
2022/12/18 10:54:38;;;;;;;24.17;10.98;;;;;;;;;;5068218;28;20045;-78
2022/12/18 10:57:28;;;;;;;24.80;11.02;;;;;;;;;;5068040;28;20057;-80
2022/12/18 10:59:55;;;;;;;21.88;10.95;;;;;;;;;;5060577;28;20080;-79
2022/12/18 11:02:27;;;;;;;24.15;10.50;;;;;;;;;;5051261;28;20512;-79
2022/12/18 11:04:53;;;;;;;23.88;10.20;;;;;;;;;;5049570;28;20057;-80
2022/12/18 11:07:20;;;;;;;23.00;9.52;;;;;;;;;;5063678;28;22044;-80
2022/12/18 11:09:59;;;;;;;22.35;9.75;;;;;;;;;;5067287;28;20080;-79
2022/12/18 11:12:28;;;;;;;18.50;8.10;;;;;;;;;;5049521;28;20240;-79
2022/12/18 11:14:56;;;;;;;20.33;8.70;;;;;;;;;;5063822;28;20080;-79
2022/12/18 11:17:27;;;;;;;20.08;9.63;;;;;;;;;;5061829;28;20053;-79
2022/12/18 11:19:55;;;;;;;20.80;9.13;;;;;;;;;;5050059;28;20052;-80
2022/12/18 11:22:27;;;;;;;25.40;10.32;;;;;;;;;;5067603;28;20638;-79
2022/12/18 11:25:01;;;;;;;29.98;12.73;;;;;;;;;;5049928;28;20578;-78
2022/12/18 11:27:52;;;;;;;23.20;10.70;;;;;;;;;;5067213;28;20525;-78
2022/12/18 11:30:23;;;;;;;25.80;11.35;;;;;;;;;;5066985;28;20512;-79
2022/12/18 11:32:49;;;;;;;;;;;;;;;;;;5064069;28;20059;-78
2022/12/18 11:35:25;;;;;;;63.70;26.65;;;;;;;;;;5044869;28;46986;-78
2022/12/18 11:37:58;;;;;;;23.50;11.27;;;;;;;;;;5047979;28;21015;-78
2022/12/18 11:40:32;;;;;;;21.80;11.40;;;;;;;;;;5069251;28;20057;-78
2022/12/18 11:43:06;;;;;;;20.13;9.65;;;;;;;;;;5068936;28;20053;-78
2022/12/18 11:45:39;;;;;;;25.63;10.00;;;;;;;;;;5065964;28;20880;-78
2022/12/18 11:48:05;;;;;;;22.63;10.07;;;;;;;;;;5065785;28;20516;-79
2022/12/18 11:50:48;;;;;;;23.17;9.48;;;;;;;;;;5063726;28;20693;-79
2022/12/18 11:53:14;;;;;;;22.20;9.25;;;;;;;;;;5066473;28;20061;-79
2022/12/18 11:55:46;;;;;;;25.20;9.95;;;;;;;;;;5062476;28;20056;-80
2022/12/18 11:58:25;;;;;;;24.25;9.73;;;;;;;;;;5065530;28;20053;-78
2022/12/18 12:01:23;;;;;;;21.05;10.05;;;;;;;;;;5048047;28;20056;-78
2022/12/18 12:03:58;;;;;;;20.80;10.13;;;;;;;;;;5044555;28;20420;-78
2022/12/18 12:06:38;;;;;;;24.55;10.30;;;;;;;;;;5050561;28;20057;-78
2022/12/18 12:09:10;;;;;;;20.80;8.48;;;;;;;;;;5065180;28;20059;-78
2022/12/18 12:11:43;;;;;;;27.05;10.52;;;;;;;;;;5043614;28;20554;-78
2022/12/18 12:14:28;;;;;;;20.10;8.70;;;;;;;;;;5065705;28;20508;-79
2022/12/18 12:17:01;;;;;;;19.90;8.25;;;;;;;;;;5068575;28;20053;-79
2022/12/18 12:19:35;;;;;;;19.38;9.07;;;;;;;;;;5068994;28;20052;-82
2022/12/18 12:22:17;;;;;;;21.33;10.30;;;;;;;;;;5065525;28;20053;-79
2022/12/18 12:24:49;;;;;;;21.77;9.07;;;;;;;;;;5067552;28;20556;-79
2022/12/18 12:27:16;;;;;;;20.70;9.60;;;;;;;;;;5048907;28;20053;-79
2022/12/18 12:29:49;;;;;;;20.77;9.80;;;;;;;;;;5067876;28;20061;-79
2022/12/18 12:32:35;;;;;;;20.27;9.35;;;;;;;;;;5069688;28;20246;-79
2022/12/18 12:35:05;;;;;;;19.55;9.95;;;;;;;;;;5065125;28;20910;-79
2022/12/18 12:37:54;;;;;;;19.73;9.25;;;;;;;;;;5032252;28;20061;-79
2022/12/18 12:40:22;;;;;;;21.65;9.38;;;;;;;;;;5050694;28;20136;-79
2022/12/18 12:43:15;;;;;;;20.33;9.93;;;;;;;;;;5065826;28;20052;-79
2022/12/18 12:45:59;;;;;;;20.60;9.55;;;;;;;;;;5068239;28;20065;-78
2022/12/18 12:48:44;;;;;;;21.60;10.48;;;;;;;;;;5065384;28;20072;-78
2022/12/18 12:51:15;;;;;;;21.83;9.80;;;;;;;;;;5047615;28;20131;-78
2022/12/18 12:53:41;;;;;;;23.00;10.23;;;;;;;;;;5048238;28;20499;-78
2022/12/18 12:56:11;;;;;;;24.50;10.73;;;;;;;;;;5067409;28;20052;-78
2022/12/18 12:58:41;;;;;;;22.50;10.13;;;;;;;;;;5065498;28;20067;-78
2022/12/18 13:01:31;;;;;;;24.42;10.50;;;;;;;;;;5067024;28;20132;-79
2022/12/18 13:04:17;;;;;;;20.83;8.52;;;;;;;;;;5029230;28;20115;-78
2022/12/18 13:06:53;;;;;;;23.38;10.52;;;;;;;;;;5049830;28;20085;-79
2022/12/18 13:09:20;;;;;;;23.67;13.18;;;;;;;;;;5066598;28;20410;-78
2022/12/18 13:14:34;;;;;;;23.55;11.02;;;;;;;;;;5067283;28;20053;-78
2022/12/18 13:17:24;;;;;;;21.48;10.07;;;;;;;;;;5065003;28;20136;-78
2022/12/18 13:19:52;;;;;;;19.73;9.38;;;;;;;;;;5050812;28;20057;-78
2022/12/18 13:22:22;;;;;;;22.20;11.02;;;;;;;;;;5065333;28;20056;-78
2022/12/18 13:24:49;;;;;;;26.27;11.02;;;;;;;;;;5045516;28;20093;-78
2022/12/18 13:27:35;;;;;;;22.20;9.98;;;;;;;;;;5064548;28;20087;-79
2022/12/18 13:30:01;;;;;;;23.42;9.98;;;;;;;;;;5059674;28;20055;-79
2022/12/18 13:32:28;;;;;;;21.35;9.48;;;;;;;;;;5061649;28;20061;-79
2022/12/18 13:35:27;;;;;;;23.25;9.07;;;;;;;;;;5067354;28;20053;-78
2022/12/18 13:37:54;;;;;;;20.67;10.50;;;;;;;;;;5043731;28;20060;-79
2022/12/18 13:40:41;;;;;;;21.50;9.73;;;;;;;;;;5066389;28;20055;-79
2022/12/18 13:43:19;;;;;;;23.00;9.93;;;;;;;;;;5025749;28;20447;-79
2022/12/18 13:45:58;;;;;;;23.35;10.60;;;;;;;;;;5064954;28;20135;-78
2022/12/18 13:48:25;;;;;;;24.35;10.10;;;;;;;;;;5048591;28;20053;-79
2022/12/18 13:50:58;;;;;;;23.60;10.07;;;;;;;;;;5067353;28;20053;-79
2022/12/18 13:53:26;;;;;;;19.95;9.18;;;;;;;;;;5047929;28;20090;-79
2022/12/18 13:55:52;;;;;;;19.52;9.75;;;;;;;;;;5064391;28;20056;-78
2022/12/18 13:58:19;;;;;;;26.08;9.38;;;;;;;;;;5064667;28;20057;-79
2022/12/18 14:00:46;;;;;;;19.58;10.10;;;;;;;;;;5066385;28;20107;-79
2022/12/18 14:03:26;;;;;;;19.38;9.40;;;;;;;;;;5065252;28;20053;-78
2022/12/18 14:05:54;;;;;;;22.08;10.38;;;;;;;;;;5054177;28;20129;-79
2022/12/18 14:08:20;;;;;;;21.70;10.68;;;;;;;;;;5066904;28;20087;-79
2022/12/18 14:10:49;;;;;;;21.55;9.82;;;;;;;;;;5065239;28;20519;-79
2022/12/18 14:13:19;;;;;;;18.02;9.43;;;;;;;;;;5063161;28;20053;-79
2022/12/18 14:15:47;;;;;;;21.88;9.70;;;;;;;;;;5065046;28;20060;-79
2022/12/18 14:18:22;;;;;;;21.42;9.98;;;;;;;;;;5064874;28;20053;-79
2022/12/18 14:20:50;;;;;;;21.42;9.75;;;;;;;;;;5067012;28;20055;-79
2022/12/18 14:23:29;;;;;;;21.65;9.50;;;;;;;;;;5065376;28;20056;-79
2022/12/18 14:25:55;;;;;;;21.35;10.25;;;;;;;;;;5065165;28;20110;-79
2022/12/18 14:28:29;;;;;;;21.73;10.20;;;;;;;;;;5066114;28;20057;-79
2022/12/18 14:30:56;;;;;;;22.95;9.88;;;;;;;;;;5066278;28;20083;-79
2022/12/18 14:33:24;;;;;;;21.15;10.25;;;;;;;;;;5065371;28;20053;-79
2022/12/18 14:35:56;;;;;;;23.52;9.93;;;;;;;;;;5046865;28;20540;-79
2022/12/18 14:38:29;;;;;;;29.50;12.98;;;;;;;;;;5062985;28;20053;-79
2022/12/18 14:41:25;;;;;;;41.10;18.45;;;;;;;;;;5048032;28;20057;-79
2022/12/18 14:43:52;;;;;;;26.50;10.27;;;;;;;;;;5048903;28;20486;-79
2022/12/18 14:46:25;;;;;;;32.28;14.82;;;;;;;;;;5065310;28;20092;-79